This is the latest recevied weather packets stored in our database for station/object NK2J. If no packets are shown the sender has not sent any weather packets the latest 10 day(s).
| Time | Temp. | Humidity | Pressure | Rain* | Wind** | Luminosity | Snow |
|---|---|---|---|---|---|---|---|
| 1777831185 | 31.11° C | 25% | 1013.6 hPa | 0 mm | - | 490 W/m² | - |
| 1777830883 | 31.11° C | 24% | 1013.8 hPa | 0 mm | - | 521 W/m² | - |
| 1777830579 | 31.11° C | 25% | 1013.9 hPa | 0 mm | - | 591 W/m² | - |
| 1777830277 | 31.11° C | 25% | 1013.7 hPa | 0 mm | - | 616 W/m² | - |
| 1777829973 | 31.11° C | 26% | 1013.7 hPa | 0 mm | - | 676 W/m² | - |
| 1777829669 | 31.67° C | 25% | 1013.8 hPa | 0 mm | - | 738 W/m² | - |
| 1777829366 | 30.56° C | 24% | 1013.8 hPa | 0 mm | - | 531 W/m² | - |
| 1777829063 | 30.56° C | 26% | 1013.9 hPa | 0 mm | - | 474 W/m² | - |
| 1777828759 | 30.56° C | 24% | 1013.8 hPa | 0 mm | - | 445 W/m² | - |
| 1777828456 | 30° C | 25% | 1013.8 hPa | 0 mm | - | 323 W/m² | - |
| 1777828154 | 30° C | 26% | 1013.9 hPa | 0 mm | - | 464 W/m² | - |
| 1777827850 | 29.44° C | 27% | 1013.8 hPa | 0 mm | - | 410 W/m² | - |
| 1777827547 | 30° C | 26% | 1013.9 hPa | 0 mm | - | 369 W/m² | - |
| 1777827245 | 30° C | 25% | 1013.9 hPa | 0 mm | - | 404 W/m² | - |
| 1777826940 | 30° C | 26% | 1014 hPa | 0 mm | - | 491 W/m² | - |
| 1777826638 | 29.44° C | 27% | 1013.9 hPa | 0 mm | - | 415 W/m² | - |
| 1777826334 | 29.44° C | 27% | 1014 hPa | 0 mm | - | 316 W/m² | - |
| 1777826032 | 29.44° C | 27% | 1014 hPa | 0 mm | - | 449 W/m² | - |
| 1777825728 | 28.89° C | 27% | 1014.2 hPa | 0 mm | - | 406 W/m² | - |
| 1777825426 | 28.89° C | 27% | 1014 hPa | 0 mm | - | 296 W/m² | - |
| 1777825123 | 28.89° C | 27% | 1014 hPa | 0 mm | - | 418 W/m² | - |
| 1777824819 | 28.89° C | 28% | 1013.8 hPa | 0 mm | - | 295 W/m² | - |
| 1777824516 | 28.33° C | 28% | 1013.9 hPa | 0 mm | - | 258 W/m² | - |
| 1777824212 | 28.33° C | 28% | 1014 hPa | 0 mm | - | 279 W/m² | - |
| 1777823908 | 28.33° C | 28% | 1014 hPa | 0 mm | - | 235 W/m² | - |
* Rain latest hour (hover to see other rain measurements)
** Current wind speed in m/s (hover to see current wind gust speed)